Nearby METAR Reports

 

KSLE - Salem, Oregon, USA
Distance from station: NE 1mi, 2km
Updated: Sat, 04-Feb-2023 4:56am PST
Mostly cloudy
Mostly cloudy
 Wind from ESE
Wind: ESE 3 mph , 6 km/h
Temperature: 43°F , 6°C
Dew Point: 41°F , 5°C
Humidity: 93%
Barometer: 30.05 inHg , 1017.6 hPa
Clouds: Mostly cloudy
Visibility: 10 miles , 16 km
Cloud details: Few Clouds 7500 ft
Mostly cloudy 9500 ft
2023/02/04 12:56 KSLE 041256Z AUTO 12003KT 10SM FEW075 BKN095 06/05 A3005 RMK AO2 SLP177 T00610050
KMMV - Mcminnville, Oregon, USA
Distance from station: NNW 22mi, 36km
Updated: Sat, 04-Feb-2023 4:53am PST
Overcast
Overcast
 Wind from calm
Wind: Calm
Temperature: 45°F , 7°C
Dew Point: 43°F , 6°C
Humidity: 93%
Barometer: 30.05 inHg , 1017.6 hPa
Clouds: Overcast
Visibility: 10 miles , 16 km
Cloud details: Partly cloudy 4100 ft
Mostly cloudy 4800 ft
Overcast 10000 ft
2023/02/04 12:53 KMMV 041253Z AUTO 00000KT 10SM SCT041 BKN048 OVC100 07/06 A3005 RMK AO2 SLP175 T00670056
 
KUAO - Aurora, Oregon, USA
Distance from station: NNE 28mi, 45km
Updated: Sat, 04-Feb-2023 4:53am PST
Overcast
Overcast
 Wind from calm
Wind: Calm
Temperature: 45°F , 7°C
Dew Point: 45°F , 7°C
Humidity: 100%
Barometer: 30.07 inHg , 1018.3 hPa
Clouds: Overcast
Visibility: 10 miles , 16 km
Cloud details: Partly cloudy 6000 ft
Overcast 9500 ft
2023/02/04 12:53 KUAO 041253Z 00000KT 10SM SCT060 OVC095 07/07 A3007 RMK AO2 SLP183 T00670067
KCVO - Corvallis Muni A, Oregon, USA
Distance from station: SSW 29mi, 47km
Updated: Sat, 04-Feb-2023 4:56am PST
Mist, Mostly cloudy
Mist, Mostly cloudy
 Wind from calm
Wind: Calm
Temperature: 41°F , 5°C
Dew Point: 39°F , 4°C
Humidity: 93%
Barometer: 30.07 inHg , 1018.3 hPa
Summary: Mist
Clouds: Mostly cloudy
Visibility: 6 miles , 10 km
Cloud details: Mostly cloudy 6500 ft
2023/02/04 12:56 KCVO 041256Z AUTO 00000KT 6SM BR BKN065 05/04 A3007 RMK AO2 SLP184 T00500044
 
KHIO - Hillsboro/Portld, Oregon, USA
Distance from station: N 46mi, 74km
Updated: Sat, 04-Feb-2023 4:53am PST
Overcast
Overcast
 Wind from ESE
Wind: ESE 6 mph , 9 km/h
Temperature: 46°F , 8°C
Wind Chill: 43°F , 6°C
Dew Point: 45°F , 7°C
Humidity: 93%
Barometer: 30.06 inHg , 1017.9 hPa
Clouds: Overcast
Visibility: 10 miles , 16 km
Cloud details: Mostly cloudy 4500 ft
Overcast 9000 ft
2023/02/04 12:53 KHIO 041253Z 11005KT 10SM BKN045 OVC090 08/07 A3006 RMK AO2 SLP178 T00830067